createdAt,value
2023-01-18T00:01:19.494Z,0.10
2023-01-18T00:03:46.388Z,0.15
2023-01-18T00:06:13.796Z,-0.00
2023-01-18T00:08:43.224Z,-0.12
2023-01-18T00:11:15.701Z,-0.13
2023-01-18T00:13:43.613Z,-0.22
2023-01-18T00:16:19.478Z,-0.18
2023-01-18T00:18:57.279Z,-0.21
2023-01-18T00:21:25.294Z,-0.24
2023-01-18T00:23:51.981Z,-0.21
2023-01-18T00:26:19.015Z,-0.31
2023-01-18T00:28:46.007Z,-0.32
2023-01-18T00:31:15.182Z,-0.30
2023-01-18T00:33:46.631Z,-0.37
2023-01-18T00:36:14.953Z,-0.23
2023-01-18T00:38:42.129Z,-0.18
2023-01-18T00:41:08.872Z,-0.20
2023-01-18T00:43:41.455Z,-0.21
2023-01-18T00:46:22.883Z,-0.29
2023-01-18T00:48:51.285Z,-0.37
2023-01-18T00:51:24.416Z,-0.35
2023-01-18T00:53:51.552Z,-0.28
2023-01-18T00:56:21.837Z,-0.29
2023-01-18T00:58:48.919Z,-0.23
2023-01-18T01:01:16.134Z,-0.34
2023-01-18T01:04:01.564Z,-0.37
2023-01-18T01:06:45.449Z,-0.42
2023-01-18T01:09:15.351Z,-0.41
2023-01-18T01:12:02.653Z,-0.44
2023-01-18T01:14:48.423Z,-0.36
2023-01-18T01:17:33.700Z,-0.48
2023-01-18T01:20:18.920Z,-0.49
2023-01-18T01:23:04.336Z,-0.41
2023-01-18T01:25:49.786Z,-0.52
2023-01-18T01:28:16.502Z,-0.41
2023-01-18T01:30:44.697Z,-0.33
2023-01-18T01:33:11.790Z,-0.39
2023-01-18T01:35:38.533Z,-0.44
2023-01-18T01:38:05.380Z,-0.43
2023-01-18T01:40:32.052Z,-0.42
2023-01-18T01:42:59.010Z,-0.50
2023-01-18T01:45:27.766Z,-0.32
2023-01-18T01:47:56.020Z,-0.44
2023-01-18T01:50:34.548Z,-0.37
2023-01-18T01:53:02.365Z,-0.38
2023-01-18T01:55:33.023Z,-0.45
2023-01-18T01:58:09.533Z,-0.54
2023-01-18T02:00:36.350Z,-0.54
2023-01-18T02:03:09.335Z,-0.45
2023-01-18T02:05:43.754Z,-0.47
2023-01-18T02:08:12.918Z,-0.57
2023-01-18T02:10:40.052Z,-0.53
2023-01-18T02:13:08.862Z,-0.51
2023-01-18T02:15:54.985Z,-0.49
2023-01-18T02:18:27.423Z,-0.51
2023-01-18T02:21:14.765Z,-0.51
2023-01-18T02:23:59.890Z,-0.44
2023-01-18T02:26:51.064Z,-0.56
2023-01-18T02:29:25.120Z,-0.52
2023-01-18T02:32:08.911Z,-0.45
2023-01-18T02:34:44.259Z,-0.69
2023-01-18T02:37:20.998Z,-0.61
2023-01-18T02:40:23.560Z,-0.67
2023-01-18T02:43:09.236Z,-0.67
2023-01-18T02:46:00.330Z,-0.68
2023-01-18T02:48:34.122Z,-0.66
2023-01-18T02:51:00.824Z,-0.57
2023-01-18T02:53:27.785Z,-0.63
2023-01-18T02:56:10.110Z,-0.83
2023-01-18T02:59:05.211Z,-0.80
2023-01-18T03:01:48.856Z,-0.78
2023-01-18T03:04:22.232Z,-0.86
2023-01-18T03:06:53.554Z,-0.83
2023-01-18T03:09:21.545Z,-0.77
2023-01-18T03:11:57.238Z,-0.78
2023-01-18T03:14:52.927Z,-0.78
2023-01-18T03:17:26.678Z,-0.79
2023-01-18T03:20:08.046Z,-0.66
2023-01-18T03:23:04.279Z,-0.69
2023-01-18T03:25:35.082Z,-0.65
2023-01-18T03:28:48.999Z,-0.62
2023-01-18T03:31:39.807Z,-0.79
2023-01-18T03:34:19.488Z,-0.80
2023-01-18T03:36:48.870Z,-0.94
2023-01-18T03:39:20.731Z,-0.86
2023-01-18T03:41:53.591Z,-0.83
2023-01-18T03:44:32.688Z,-0.87
2023-01-18T03:46:59.584Z,-0.90
2023-01-18T03:49:27.629Z,-0.78
2023-01-18T03:52:01.627Z,-0.95
2023-01-18T03:54:34.278Z,-0.94
2023-01-18T03:57:15.151Z,-0.93
2023-01-18T03:59:41.941Z,-0.98
2023-01-18T04:02:09.871Z,-0.95
2023-01-18T04:04:36.518Z,-1.11
2023-01-18T04:07:04.186Z,-1.00
2023-01-18T04:09:30.905Z,-0.99
2023-01-18T04:11:57.585Z,-1.00
2023-01-18T04:14:24.449Z,-0.99
2023-01-18T04:16:51.159Z,-1.07
2023-01-18T04:19:18.387Z,-0.96
2023-01-18T04:21:45.111Z,-0.90
2023-01-18T04:24:11.901Z,-1.00
2023-01-18T04:26:38.936Z,-1.01
2023-01-18T04:29:05.836Z,-1.04
2023-01-18T04:31:32.768Z,-1.02
2023-01-18T04:33:59.531Z,-1.02
2023-01-18T04:36:26.344Z,-0.99
2023-01-18T04:38:54.288Z,-0.91
2023-01-18T04:41:21.565Z,-1.05
2023-01-18T04:43:48.275Z,-1.05
2023-01-18T04:46:15.617Z,-0.90
2023-01-18T04:48:42.724Z,-1.07
2023-01-18T04:51:13.979Z,-1.00
2023-01-18T04:53:44.362Z,-1.03
2023-01-18T04:56:11.723Z,-1.12
2023-01-18T04:58:38.750Z,-1.14
2023-01-18T05:01:09.086Z,-1.12
2023-01-18T05:03:38.437Z,-1.14
2023-01-18T05:06:07.244Z,-1.16
2023-01-18T05:08:34.442Z,-0.98
2023-01-18T05:11:12.489Z,-1.13
2023-01-18T05:13:40.249Z,-1.12
2023-01-18T05:16:08.595Z,-1.11
2023-01-18T05:18:35.476Z,-1.09
2023-01-18T05:21:02.175Z,-1.06
2023-01-18T05:23:28.858Z,-1.01
2023-01-18T05:25:56.983Z,-1.06
2023-01-18T05:28:25.196Z,-1.12
2023-01-18T05:30:52.914Z,-1.03
2023-01-18T05:33:20.222Z,-1.00
2023-01-18T05:35:51.757Z,-0.94
2023-01-18T05:38:18.831Z,-0.98
2023-01-18T05:40:47.920Z,-0.94
2023-01-18T05:43:14.903Z,-0.94
2023-01-18T05:45:42.740Z,-0.97
2023-01-18T05:48:12.396Z,-1.04
2023-01-18T05:50:40.468Z,-0.96
2023-01-18T05:53:13.968Z,-1.01
2023-01-18T05:55:41.088Z,-0.99
2023-01-18T05:58:07.964Z,-1.00
2023-01-18T06:00:34.736Z,-1.03
2023-01-18T06:03:02.151Z,-1.03
2023-01-18T06:05:29.173Z,-1.03
2023-01-18T06:07:55.857Z,-1.14
2023-01-18T06:10:22.495Z,-1.15
2023-01-18T06:12:49.119Z,-1.18
2023-01-18T06:15:15.895Z,-1.15
2023-01-18T06:17:45.609Z,-1.17
2023-01-18T06:20:13.661Z,-1.14
2023-01-18T06:22:40.879Z,-1.24
2023-01-18T06:25:09.604Z,-1.24
2023-01-18T06:27:37.732Z,-1.18
2023-01-18T06:30:06.372Z,-1.22
2023-01-18T06:32:33.710Z,-1.14
2023-01-18T06:35:00.390Z,-1.25
2023-01-18T06:37:27.050Z,-1.31
2023-01-18T06:39:53.794Z,-1.41
2023-01-18T06:42:20.409Z,-1.38
2023-01-18T06:44:47.095Z,-1.43
2023-01-18T06:47:18.972Z,-1.40
2023-01-18T06:49:47.897Z,-1.27
2023-01-18T06:52:16.072Z,-1.33
2023-01-18T06:54:42.799Z,-1.40
2023-01-18T06:57:09.426Z,-1.43
2023-01-18T06:59:36.030Z,-1.32
2023-01-18T07:02:02.987Z,-1.39
2023-01-18T07:04:29.698Z,-1.44
2023-01-18T07:06:56.495Z,-1.36
2023-01-18T07:09:23.426Z,-1.37
2023-01-18T07:11:53.156Z,-1.35
2023-01-18T07:14:20.011Z,-1.46
2023-01-18T07:16:46.710Z,-1.47
2023-01-18T07:19:13.506Z,-1.43
2023-01-18T07:21:40.589Z,-1.43
2023-01-18T07:24:07.360Z,-1.50
2023-01-18T07:26:34.236Z,-1.43
2023-01-18T07:29:01.549Z,-1.53
2023-01-18T07:31:28.215Z,-1.53
2023-01-18T07:33:54.908Z,-1.44
2023-01-18T07:36:22.982Z,-1.51
2023-01-18T07:38:50.062Z,-1.55
2023-01-18T07:41:17.254Z,-1.40
2023-01-18T07:43:45.303Z,-1.46
2023-01-18T07:46:15.412Z,-1.38
2023-01-18T07:48:42.269Z,-1.53
2023-01-18T07:51:10.674Z,-1.41
2023-01-18T07:53:38.496Z,-1.38
2023-01-18T07:56:17.802Z,-1.41
2023-01-18T07:58:45.504Z,-1.22
2023-01-18T08:01:15.289Z,-1.35
2023-01-18T08:03:43.575Z,-1.29
2023-01-18T08:06:12.818Z,-1.35
2023-01-18T08:08:39.843Z,-1.17
2023-01-18T08:11:07.515Z,-1.14
2023-01-18T08:13:34.352Z,-1.14
2023-01-18T08:16:03.461Z,-1.17
2023-01-18T08:18:30.832Z,-1.27
2023-01-18T08:20:57.962Z,-1.13
2023-01-18T08:23:24.659Z,-1.04
2023-01-18T08:25:52.145Z,-1.08
2023-01-18T08:28:19.365Z,-1.09
2023-01-18T08:30:48.496Z,-1.21
2023-01-18T08:33:15.620Z,-1.03
2023-01-18T08:35:47.544Z,-0.91
2023-01-18T08:38:16.100Z,-0.89
2023-01-18T08:40:43.487Z,-1.12
2023-01-18T08:43:11.859Z,-0.90
2023-01-18T08:45:38.568Z,-0.81
2023-01-18T08:48:08.000Z,-0.83
2023-01-18T08:50:36.035Z,-0.78
2023-01-18T08:53:04.150Z,-0.73
2023-01-18T08:55:31.824Z,-0.71
2023-01-18T08:57:58.823Z,-0.85
2023-01-18T09:00:28.742Z,-0.73
2023-01-18T09:02:56.090Z,-0.70
2023-01-18T09:05:24.767Z,-0.68
2023-01-18T09:07:55.742Z,-0.53
2023-01-18T09:10:22.891Z,-0.43
2023-01-18T09:12:50.709Z,-0.51
2023-01-18T09:15:19.019Z,-0.42
2023-01-18T09:17:46.246Z,-0.40
2023-01-18T09:20:13.335Z,-0.32
2023-01-18T09:22:40.064Z,-0.32
2023-01-18T09:25:06.910Z,-0.25
2023-01-18T09:27:33.711Z,-0.22
2023-01-18T09:30:00.706Z,-0.08
2023-01-18T09:32:27.740Z,-0.10
2023-01-18T09:34:54.889Z,0.02
2023-01-18T09:37:21.929Z,0.04
2023-01-18T09:39:52.770Z,0.13
2023-01-18T09:42:27.532Z,0.08
2023-01-18T09:44:58.726Z,0.14
2023-01-18T09:47:36.879Z,0.36
2023-01-18T09:50:13.286Z,0.44
2023-01-18T09:53:02.739Z,0.58
2023-01-18T09:55:33.254Z,0.69
2023-01-18T09:58:11.467Z,0.96
2023-01-18T10:00:44.219Z,0.69
2023-01-18T10:03:27.376Z,0.75
2023-01-18T10:06:09.967Z,0.69
2023-01-18T10:08:44.288Z,0.56
2023-01-18T10:11:21.554Z,0.73
2023-01-18T10:13:57.098Z,0.82
2023-01-18T10:16:25.407Z,0.86
2023-01-18T10:18:55.753Z,0.84
2023-01-18T10:21:41.962Z,0.74
2023-01-18T10:24:24.499Z,0.86
2023-01-18T10:26:56.577Z,0.93
2023-01-18T10:29:35.604Z,0.80
2023-01-18T10:32:08.387Z,0.97
2023-01-18T10:34:39.436Z,0.88
2023-01-18T10:37:33.551Z,0.98
2023-01-18T10:40:07.779Z,1.08
2023-01-18T10:42:45.133Z,1.09
2023-01-18T10:45:21.328Z,1.09
2023-01-18T10:47:49.107Z,1.19
2023-01-18T10:50:33.713Z,1.45
2023-01-18T10:53:33.072Z,1.56
2023-01-18T10:56:02.173Z,1.62
2023-01-18T10:58:44.198Z,1.52
2023-01-18T11:01:19.996Z,1.41
2023-01-18T11:03:50.151Z,1.53
2023-01-18T11:06:20.548Z,1.56
2023-01-18T11:08:49.167Z,1.58
2023-01-18T11:11:15.738Z,1.57
2023-01-18T11:13:45.843Z,1.49
2023-01-18T11:16:23.208Z,1.65
2023-01-18T11:19:17.441Z,1.91
2023-01-18T11:21:45.674Z,1.95
2023-01-18T11:24:18.555Z,2.08
2023-01-18T11:26:57.507Z,2.06
2023-01-18T11:29:28.801Z,2.09
2023-01-18T11:32:00.846Z,2.30
2023-01-18T11:34:34.879Z,2.29
2023-01-18T11:37:02.658Z,2.34
2023-01-18T11:39:35.082Z,2.30
2023-01-18T11:42:22.227Z,2.42
2023-01-18T11:44:54.586Z,2.54
2023-01-18T11:47:28.984Z,2.59
2023-01-18T11:50:21.077Z,2.67
2023-01-18T11:52:57.433Z,2.65
2023-01-18T11:55:40.872Z,2.47
2023-01-18T11:58:26.577Z,2.45
2023-01-18T12:01:33.809Z,2.75
2023-01-18T12:04:07.040Z,2.69
2023-01-18T12:07:07.923Z,2.77
2023-01-18T12:10:11.032Z,2.88
2023-01-18T12:13:13.544Z,3.02
2023-01-18T12:16:05.972Z,3.03
2023-01-18T12:18:44.708Z,3.14
2023-01-18T12:21:13.693Z,3.10
2023-01-18T12:23:59.831Z,3.08
2023-01-18T12:26:45.356Z,3.08
2023-01-18T12:29:24.248Z,3.05
2023-01-18T12:32:23.048Z,3.23
2023-01-18T12:35:24.499Z,3.25
2023-01-18T12:38:07.064Z,3.32
2023-01-18T12:40:43.039Z,3.30
2023-01-18T12:43:41.140Z,3.29
2023-01-18T12:46:14.290Z,3.30
2023-01-18T12:49:04.432Z,3.18
2023-01-18T12:51:35.653Z,3.18
2023-01-18T12:54:34.543Z,3.10
2023-01-18T12:57:02.242Z,3.08
2023-01-18T12:59:42.536Z,3.13
2023-01-18T13:02:21.587Z,3.11
2023-01-18T13:04:55.578Z,3.05
2023-01-18T13:07:30.723Z,3.13
2023-01-18T13:09:57.924Z,3.00
2023-01-18T13:12:26.081Z,3.02
2023-01-18T13:15:01.848Z,2.96
2023-01-18T13:17:39.956Z,3.01
2023-01-18T13:20:17.229Z,3.05
2023-01-18T13:23:08.931Z,3.09
2023-01-18T13:25:57.461Z,3.03
2023-01-18T13:28:26.087Z,2.98
2023-01-18T13:31:01.865Z,2.97
2023-01-18T13:33:42.009Z,3.00
2023-01-18T13:36:11.083Z,3.13
2023-01-18T13:39:07.801Z,3.17
2023-01-18T13:41:34.412Z,2.97
2023-01-18T13:44:03.103Z,2.97
2023-01-18T13:46:33.038Z,3.00
2023-01-18T13:49:36.131Z,2.96
2023-01-18T13:52:33.993Z,3.00
2023-01-18T13:55:04.143Z,2.78
2023-01-18T13:57:33.337Z,2.71
2023-01-18T14:00:02.333Z,2.71
2023-01-18T14:02:41.993Z,2.53
2023-01-18T14:05:27.498Z,2.40
2023-01-18T14:07:57.970Z,2.31
2023-01-18T14:10:46.957Z,2.34
2023-01-18T14:13:18.076Z,2.15
2023-01-18T14:15:54.712Z,2.02
2023-01-18T14:18:23.588Z,2.01
2023-01-18T14:21:17.945Z,1.80
2023-01-18T14:24:06.309Z,1.89
2023-01-18T14:26:36.177Z,2.11
2023-01-18T14:29:06.889Z,1.95
2023-01-18T14:31:37.497Z,1.95
2023-01-18T14:34:23.595Z,1.83
2023-01-18T14:36:50.453Z,1.92
2023-01-18T14:39:18.108Z,1.88
2023-01-18T14:41:47.648Z,1.93
2023-01-18T14:44:18.145Z,1.94
2023-01-18T14:46:53.445Z,1.88
2023-01-18T14:49:25.875Z,1.78
2023-01-18T14:51:53.484Z,1.62
2023-01-18T14:54:24.245Z,1.85
2023-01-18T14:56:51.168Z,1.79
2023-01-18T14:59:27.619Z,1.95
2023-01-18T15:02:15.909Z,2.17
2023-01-18T15:04:45.761Z,1.99
2023-01-18T15:07:30.791Z,2.03
2023-01-18T15:09:58.639Z,2.15
2023-01-18T15:12:30.898Z,2.00
2023-01-18T15:15:17.532Z,2.05
2023-01-18T15:17:47.248Z,2.03
2023-01-18T15:20:15.187Z,1.83
2023-01-18T15:22:42.725Z,1.86
2023-01-18T15:25:26.288Z,1.73
2023-01-18T15:27:53.744Z,1.75
2023-01-18T15:30:23.792Z,1.76
2023-01-18T15:32:55.031Z,1.64
2023-01-18T15:35:25.431Z,1.62
2023-01-18T15:37:52.242Z,1.44
2023-01-18T15:40:18.927Z,1.37
2023-01-18T15:42:49.553Z,1.36
2023-01-18T15:45:24.187Z,1.31
2023-01-18T15:47:54.456Z,1.29
2023-01-18T15:50:34.327Z,1.17
2023-01-18T15:53:06.868Z,1.04
2023-01-18T15:55:38.707Z,0.95
2023-01-18T15:58:12.868Z,0.94
2023-01-18T16:01:13.203Z,1.06
2023-01-18T16:03:56.995Z,1.02
2023-01-18T16:06:23.856Z,0.92
2023-01-18T16:09:00.663Z,0.94
2023-01-18T16:11:34.849Z,0.93
2023-01-18T16:14:07.921Z,0.96
2023-01-18T16:16:39.615Z,0.88
2023-01-18T16:19:29.110Z,0.80
2023-01-18T16:22:01.068Z,0.62
2023-01-18T16:24:33.667Z,0.51
2023-01-18T16:27:13.276Z,0.47
2023-01-18T16:29:45.211Z,0.39
2023-01-18T16:32:30.047Z,0.41
2023-01-18T16:35:00.322Z,0.39
2023-01-18T16:37:27.759Z,0.33
2023-01-18T16:39:55.470Z,0.36
2023-01-18T16:42:29.584Z,0.36
2023-01-18T16:45:04.271Z,0.52
2023-01-18T16:47:30.932Z,0.38
2023-01-18T16:49:59.383Z,0.42
2023-01-18T16:52:26.406Z,0.40
2023-01-18T16:54:53.080Z,0.21
2023-01-18T16:57:22.467Z,0.26
2023-01-18T16:59:50.510Z,0.18
2023-01-18T17:02:17.294Z,0.25
2023-01-18T17:04:45.578Z,0.13
2023-01-18T17:07:12.471Z,0.06
2023-01-18T17:09:47.893Z,0.18
2023-01-18T17:12:15.300Z,0.15
2023-01-18T17:14:42.020Z,0.08
2023-01-18T17:17:10.005Z,0.03
2023-01-18T17:19:37.930Z,0.09
2023-01-18T17:22:04.937Z,0.22
2023-01-18T17:24:31.970Z,0.08
2023-01-18T17:26:58.710Z,0.15
2023-01-18T17:29:25.411Z,0.08
2023-01-18T17:31:52.963Z,-0.10
2023-01-18T17:34:27.809Z,-0.04
2023-01-18T17:36:58.420Z,0.07
2023-01-18T17:39:37.014Z,0.06
2023-01-18T17:42:18.742Z,-0.24
2023-01-18T17:44:49.625Z,-0.24
2023-01-18T17:47:16.618Z,-0.33
2023-01-18T17:49:43.285Z,-0.41
2023-01-18T17:52:09.999Z,-0.49
2023-01-18T17:54:36.745Z,-0.50
2023-01-18T17:57:03.659Z,-0.66
2023-01-18T17:59:30.422Z,-0.75
2023-01-18T18:01:57.251Z,-0.75
2023-01-18T18:04:23.928Z,-0.81
2023-01-18T18:06:58.609Z,-0.89
2023-01-18T18:09:25.686Z,-0.99
2023-01-18T18:11:52.480Z,-1.13
2023-01-18T18:14:19.129Z,-1.23
2023-01-18T18:16:46.024Z,-1.26
2023-01-18T18:19:14.805Z,-1.32
2023-01-18T18:21:42.961Z,-1.33
2023-01-18T18:24:09.840Z,-1.41
2023-01-18T18:26:36.838Z,-1.45
2023-01-18T18:29:03.480Z,-1.55
2023-01-18T18:31:30.232Z,-1.59
2023-01-18T18:33:57.093Z,-1.48
2023-01-18T18:36:27.497Z,-1.46
2023-01-18T18:38:54.505Z,-1.47
2023-01-18T18:41:21.344Z,-1.58
2023-01-18T18:43:48.084Z,-1.66
2023-01-18T18:46:14.971Z,-1.51
2023-01-18T18:48:41.851Z,-1.64
2023-01-18T18:51:08.504Z,-1.51
2023-01-18T18:53:39.322Z,-1.48
2023-01-18T18:56:10.271Z,-1.60
2023-01-18T18:58:37.831Z,-1.67
2023-01-18T19:01:05.533Z,-1.82
2023-01-18T19:03:34.173Z,-1.98
2023-01-18T19:06:00.916Z,-2.00
2023-01-18T19:08:27.631Z,-2.05
2023-01-18T19:10:54.764Z,-1.94
2023-01-18T19:13:21.474Z,-1.95
2023-01-18T19:15:49.600Z,-1.95
2023-01-18T19:18:16.266Z,-1.91
2023-01-18T19:20:43.332Z,-1.80
2023-01-18T19:23:11.034Z,-1.66
2023-01-18T19:25:38.892Z,-1.64
2023-01-18T19:28:05.624Z,-1.53
2023-01-18T19:30:33.427Z,-1.42
2023-01-18T19:33:01.150Z,-1.31
2023-01-18T19:35:28.265Z,-1.37
2023-01-18T19:37:55.117Z,-1.37
2023-01-18T19:40:22.114Z,-1.42
2023-01-18T19:42:55.998Z,-1.39
2023-01-18T19:45:28.236Z,-1.25
2023-01-18T19:47:56.762Z,-1.37
2023-01-18T19:50:23.884Z,-1.41
2023-01-18T19:52:50.909Z,-1.27
2023-01-18T19:55:17.857Z,-1.15
2023-01-18T19:57:44.818Z,-1.14
2023-01-18T20:00:12.124Z,-1.14
2023-01-18T20:02:39.956Z,-1.10
2023-01-18T20:05:07.317Z,-1.02
2023-01-18T20:07:34.204Z,-1.07
2023-01-18T20:10:00.999Z,-1.09
2023-01-18T20:12:31.357Z,-1.18
2023-01-18T20:14:58.569Z,-0.93
2023-01-18T20:17:26.110Z,-1.02
2023-01-18T20:19:54.214Z,-0.99
2023-01-18T20:22:22.112Z,-1.01
2023-01-18T20:24:49.239Z,-1.02
2023-01-18T20:27:17.327Z,-1.14
2023-01-18T20:29:45.028Z,-1.27
2023-01-18T20:32:16.803Z,-1.15
2023-01-18T20:34:46.784Z,-1.18
2023-01-18T20:37:16.129Z,-1.24
2023-01-18T20:39:42.795Z,-1.27
2023-01-18T20:42:10.053Z,-1.15
2023-01-18T20:44:36.795Z,-1.31
2023-01-18T20:47:03.698Z,-1.14
2023-01-18T20:49:37.686Z,-1.01
2023-01-18T20:52:06.922Z,-1.18
2023-01-18T20:54:35.761Z,-1.24
2023-01-18T20:57:03.442Z,-1.19
2023-01-18T20:59:30.148Z,-1.25
2023-01-18T21:01:57.029Z,-1.28
2023-01-18T21:04:24.836Z,-1.61
2023-01-18T21:06:51.564Z,-1.70
2023-01-18T21:09:18.580Z,-1.77
2023-01-18T21:11:45.357Z,-1.73
2023-01-18T21:14:12.773Z,-1.86
2023-01-18T21:16:39.550Z,-2.01
2023-01-18T21:19:06.265Z,-2.18
2023-01-18T21:21:32.900Z,-2.12
2023-01-18T21:24:00.059Z,-2.17
2023-01-18T21:26:26.958Z,-2.25
2023-01-18T21:28:54.065Z,-2.42
2023-01-18T21:31:20.981Z,-2.20
2023-01-18T21:33:47.781Z,-2.23
2023-01-18T21:36:17.693Z,-2.32
2023-01-18T21:38:44.577Z,-2.44
2023-01-18T21:41:30.502Z,-2.45
2023-01-18T21:44:15.749Z,-2.38
2023-01-18T21:46:47.077Z,-2.58
2023-01-18T21:50:04.104Z,-2.36
2023-01-18T21:52:37.545Z,-2.31
2023-01-18T21:55:04.454Z,-2.43
2023-01-18T21:57:31.128Z,-2.61
2023-01-18T21:59:57.851Z,-2.68
2023-01-18T22:02:24.767Z,-2.31
2023-01-18T22:05:00.405Z,-2.24
2023-01-18T22:07:28.360Z,-1.96
2023-01-18T22:10:04.013Z,-1.90
2023-01-18T22:12:33.434Z,-1.98
2023-01-18T22:15:02.131Z,-2.09
2023-01-18T22:17:29.203Z,-2.08
2023-01-18T22:19:55.962Z,-1.69
2023-01-18T22:22:22.628Z,-1.77
2023-01-18T22:24:49.224Z,-1.52
2023-01-18T22:27:15.964Z,-1.44
2023-01-18T22:29:42.650Z,-1.58
2023-01-18T22:32:09.309Z,-1.46
2023-01-18T22:34:36.406Z,-1.56
2023-01-18T22:37:03.585Z,-1.57
2023-01-18T22:39:30.370Z,-1.62
2023-01-18T22:41:57.160Z,-1.66
2023-01-18T22:44:24.071Z,-1.66
2023-01-18T22:46:50.716Z,-1.70
2023-01-18T22:49:17.499Z,-1.54
2023-01-18T22:51:44.667Z,-1.75
2023-01-18T22:54:11.332Z,-1.75
2023-01-18T22:56:38.055Z,-1.76
2023-01-18T22:59:04.753Z,-1.87
2023-01-18T23:01:32.815Z,-1.78
2023-01-18T23:04:02.199Z,-1.70
2023-01-18T23:06:42.474Z,-1.66
2023-01-18T23:09:10.065Z,-1.68
2023-01-18T23:11:36.848Z,-1.72
2023-01-18T23:14:22.873Z,-1.65
2023-01-18T23:17:08.270Z,-1.74
2023-01-18T23:19:35.684Z,-1.81
2023-01-18T23:22:07.419Z,-2.09
2023-01-18T23:24:35.703Z,-2.20
2023-01-18T23:27:04.761Z,-2.16
2023-01-18T23:29:31.499Z,-2.21
2023-01-18T23:31:58.829Z,-1.83
2023-01-18T23:34:25.922Z,-1.57
2023-01-18T23:36:53.023Z,-1.41
2023-01-18T23:39:38.699Z,-1.38
2023-01-18T23:42:24.156Z,-1.24
2023-01-18T23:45:09.575Z,-1.13
2023-01-18T23:47:54.972Z,-1.17
2023-01-18T23:50:40.516Z,-1.11
2023-01-18T23:53:31.179Z,-1.04
2023-01-18T23:55:58.106Z,-0.92
2023-01-18T23:58:25.165Z,-1.11
